createdAt,value
2017-02-26T00:00:58.922Z,1005.76
2017-02-26T00:02:12.936Z,1005.74
2017-02-26T00:03:27.102Z,1005.78
2017-02-26T00:04:42.445Z,1005.74
2017-02-26T00:05:56.954Z,1005.74
2017-02-26T00:07:11.509Z,1005.73
2017-02-26T00:08:25.611Z,1005.75
2017-02-26T00:09:40.142Z,1005.72
2017-02-26T00:10:54.646Z,1005.63
2017-02-26T00:12:09.715Z,1005.62
2017-02-26T00:13:23.861Z,1005.67
2017-02-26T00:14:38.485Z,1005.63
2017-02-26T00:15:52.958Z,1005.65
2017-02-26T00:17:07.464Z,1005.69
2017-02-26T00:18:22.084Z,1005.69
2017-02-26T00:19:36.088Z,1005.65
2017-02-26T00:20:51.244Z,1005.72
2017-02-26T00:22:06.379Z,1005.7
2017-02-26T00:23:20.541Z,1005.68
2017-02-26T00:24:35.167Z,1005.69
2017-02-26T00:25:49.577Z,1005.64
2017-02-26T00:27:03.859Z,1005.62
2017-02-26T00:28:19.035Z,1005.62
2017-02-26T00:29:33.641Z,1005.58
2017-02-26T00:30:48.733Z,1005.52
2017-02-26T00:32:03.392Z,1005.47
2017-02-26T00:33:18.066Z,1005.53
2017-02-26T00:34:32.520Z,1005.47
2017-02-26T00:35:46.755Z,1005.46
2017-02-26T00:37:01.454Z,1005.43
2017-02-26T00:38:16.834Z,1005.41
2017-02-26T00:39:32.393Z,1005.43
2017-02-26T00:40:46.493Z,1005.38
2017-02-26T00:42:01.512Z,1005.41
2017-02-26T00:43:15.742Z,1005.36
2017-02-26T00:44:29.976Z,1005.39
2017-02-26T00:45:44.017Z,1005.35
2017-02-26T00:46:58.631Z,1005.37
2017-02-26T00:48:13.218Z,1005.37
2017-02-26T00:49:27.299Z,1005.37
2017-02-26T00:50:41.704Z,1005.31
2017-02-26T00:51:56.280Z,1005.33
2017-02-26T00:53:10.635Z,1005.33
2017-02-26T00:54:24.782Z,1005.32
2017-02-26T00:55:39.267Z,1005.28
2017-02-26T00:56:55.638Z,1005.3
2017-02-26T00:58:10.648Z,1005.24
2017-02-26T00:59:25.227Z,1005.22
2017-02-26T01:00:40.176Z,1005.2
2017-02-26T01:01:54.255Z,1005.21
2017-02-26T01:03:08.424Z,1005.22
2017-02-26T01:04:22.496Z,1005.21
2017-02-26T01:05:37.082Z,1005.18
2017-02-26T01:06:51.318Z,1005.23
2017-02-26T01:08:05.469Z,1005.17
2017-02-26T01:09:20.194Z,1005.17
2017-02-26T01:10:34.769Z,1005.17
2017-02-26T01:11:49.398Z,1005.18
2017-02-26T01:13:04.758Z,1005.19
2017-02-26T01:14:19.259Z,1005.21
2017-02-26T01:15:33.846Z,1005.2
2017-02-26T01:16:48.621Z,1005.19
2017-02-26T01:18:03.350Z,1005.26
2017-02-26T01:19:17.519Z,1005.22
2017-02-26T01:20:31.737Z,1005.16
2017-02-26T01:21:46.292Z,1005.18
2017-02-26T01:23:01.221Z,1005.18
2017-02-26T01:24:15.682Z,1005.23
2017-02-26T01:25:29.778Z,1005.18
2017-02-26T01:26:45.675Z,1005.17
2017-02-26T01:28:00.394Z,1005.12
2017-02-26T01:29:14.677Z,1005.11
2017-02-26T01:30:29.241Z,1005.08
2017-02-26T01:31:43.496Z,1005.12
2017-02-26T01:32:59.437Z,1005.08
2017-02-26T01:34:13.534Z,1005.1
2017-02-26T01:35:27.748Z,1005.04
2017-02-26T01:36:43.270Z,1005.06
2017-02-26T01:37:57.383Z,1005.06
2017-02-26T01:39:12.989Z,1005.1
2017-02-26T01:40:27.275Z,1005.07
2017-02-26T01:41:41.679Z,1005.04
2017-02-26T01:42:55.869Z,1005.01
2017-02-26T01:44:10.055Z,1005
2017-02-26T01:45:24.166Z,1004.96
2017-02-26T01:46:38.351Z,1005
2017-02-26T01:47:52.698Z,1005
2017-02-26T01:49:07.399Z,1005
2017-02-26T01:50:22.336Z,1005.02
2017-02-26T01:51:36.445Z,1004.99
2017-02-26T01:52:51.576Z,1004.9
2017-02-26T01:54:06.513Z,1004.9
2017-02-26T01:55:21.171Z,1004.88
2017-02-26T01:56:36.244Z,1004.93
2017-02-26T01:57:50.376Z,1004.93
2017-02-26T02:01:54.649Z,1004.97
2017-02-26T02:03:10.366Z,1004.92
2017-02-26T02:04:24.430Z,1004.93
2017-02-26T02:05:38.543Z,1005
2017-02-26T02:06:53.163Z,1004.99
2017-02-26T02:08:07.716Z,1004.94
2017-02-26T02:09:23.096Z,1004.94
2017-02-26T02:10:37.510Z,1004.96
2017-02-26T02:11:52.411Z,1004.97
2017-02-26T02:13:07.074Z,1004.9
2017-02-26T02:14:22.512Z,1004.86
2017-02-26T02:15:41.505Z,1004.83
2017-02-26T02:16:55.905Z,1004.84
2017-02-26T02:18:10.532Z,1004.83
2017-02-26T02:19:24.748Z,1004.83
2017-02-26T02:20:39.460Z,1004.84
2017-02-26T02:21:53.843Z,1004.83
2017-02-26T02:23:08.465Z,1004.86
2017-02-26T02:24:23.589Z,1004.85
2017-02-26T02:25:39.574Z,1004.83
2017-02-26T02:26:54.121Z,1004.84
2017-02-26T02:28:08.386Z,1004.87
2017-02-26T02:29:23.213Z,1004.86
2017-02-26T02:30:37.518Z,1004.85
2017-02-26T02:31:51.636Z,1004.89
2017-02-26T02:33:06.687Z,1004.9
2017-02-26T02:34:20.899Z,1004.9
2017-02-26T02:35:36.177Z,1004.91
2017-02-26T02:36:50.484Z,1004.92
2017-02-26T02:38:06.130Z,1004.91
2017-02-26T02:39:20.814Z,1004.9
2017-02-26T02:40:35.846Z,1004.92
2017-02-26T02:41:50.432Z,1004.9
2017-02-26T02:43:04.593Z,1004.91
2017-02-26T02:44:19.642Z,1004.89
2017-02-26T02:45:33.821Z,1004.88
2017-02-26T02:46:48.384Z,1004.87
2017-02-26T02:48:04.001Z,1004.85
2017-02-26T02:49:18.129Z,1004.83
2017-02-26T02:50:32.223Z,1004.82
2017-02-26T02:51:46.858Z,1004.81
2017-02-26T02:53:01.327Z,1004.82
2017-02-26T02:54:16.026Z,1004.82
2017-02-26T02:55:30.646Z,1004.8
2017-02-26T02:56:44.894Z,1004.75
2017-02-26T02:57:59.604Z,1004.68
2017-02-26T02:59:14.361Z,1004.66
2017-02-26T03:00:28.466Z,1004.69
2017-02-26T03:01:42.789Z,1004.72
2017-02-26T03:02:58.039Z,1004.7
2017-02-26T03:04:13.374Z,1004.71
2017-02-26T03:05:27.518Z,1004.67
2017-02-26T03:06:41.781Z,1004.61
2017-02-26T03:07:55.863Z,1004.62
2017-02-26T03:09:10.015Z,1004.61
2017-02-26T03:10:24.805Z,1004.62
2017-02-26T03:11:39.493Z,1004.55
2017-02-26T03:12:53.855Z,1004.55
2017-02-26T03:14:08.338Z,1004.52
2017-02-26T03:15:23.323Z,1004.52
2017-02-26T03:16:37.947Z,1004.5
2017-02-26T03:17:54.125Z,1004.49
2017-02-26T03:19:09.103Z,1004.46
2017-02-26T03:20:24.010Z,1004.5
2017-02-26T03:21:38.546Z,1004.46
2017-02-26T03:22:52.571Z,1004.48
2017-02-26T03:24:06.710Z,1004.45
2017-02-26T03:25:20.836Z,1004.43
2017-02-26T03:26:34.918Z,1004.41
2017-02-26T03:27:49.161Z,1004.44
2017-02-26T03:29:03.329Z,1004.4
2017-02-26T03:30:17.600Z,1004.41
2017-02-26T03:31:32.162Z,1004.43
2017-02-26T03:32:48.531Z,1004.45
2017-02-26T03:34:03.627Z,1004.46
2017-02-26T03:35:17.907Z,1004.45
2017-02-26T03:36:32.149Z,1004.49
2017-02-26T03:37:47.451Z,1004.43
2017-02-26T03:39:02.826Z,1004.46
2017-02-26T03:40:17.118Z,1004.35
2017-02-26T03:41:31.634Z,1004.35
2017-02-26T03:42:45.856Z,1004.35
2017-02-26T03:44:00.854Z,1004.31
2017-02-26T03:45:15.455Z,1004.3
2017-02-26T03:46:30.873Z,1004.36
2017-02-26T03:47:45.400Z,1004.27
2017-02-26T03:48:59.449Z,1004.3
2017-02-26T03:50:14.010Z,1004.29
2017-02-26T03:51:28.628Z,1004.24
2017-02-26T03:52:42.691Z,1004.23
2017-02-26T03:53:57.360Z,1004.24
2017-02-26T03:55:11.985Z,1004.21
2017-02-26T03:56:27.147Z,1004.23
2017-02-26T03:57:41.669Z,1004.25
2017-02-26T03:58:55.747Z,1004.21
2017-02-26T04:00:10.972Z,1004.17
2017-02-26T04:01:25.618Z,1004.14
2017-02-26T04:02:39.697Z,1004.18
2017-02-26T04:03:54.228Z,1004.15
2017-02-26T04:05:09.231Z,1004.15
2017-02-26T04:06:23.282Z,1004.1
2017-02-26T04:07:37.967Z,1004.13
2017-02-26T04:08:52.711Z,1004.1
2017-02-26T04:10:07.422Z,1004.11
2017-02-26T04:11:21.478Z,1004.03
2017-02-26T04:12:36.245Z,1003.99
2017-02-26T04:13:52.124Z,1003.91
2017-02-26T04:15:07.325Z,1003.85
2017-02-26T04:16:22.278Z,1003.89
2017-02-26T04:17:36.505Z,1003.87
2017-02-26T04:18:50.858Z,1003.82
2017-02-26T04:20:04.926Z,1003.79
2017-02-26T04:21:19.353Z,1003.82
2017-02-26T04:22:34.980Z,1003.76
2017-02-26T04:23:50.217Z,1003.82
2017-02-26T04:25:05.185Z,1003.84
2017-02-26T04:26:20.299Z,1003.82
2017-02-26T04:27:34.970Z,1003.87
2017-02-26T04:28:50.169Z,1003.79
2017-02-26T04:30:04.949Z,1003.81
2017-02-26T04:31:20.935Z,1003.8
2017-02-26T04:32:36.097Z,1003.82
2017-02-26T04:33:50.237Z,1003.78
2017-02-26T04:35:05.121Z,1003.76
2017-02-26T04:36:20.172Z,1003.74
2017-02-26T04:37:35.406Z,1003.74
2017-02-26T04:38:50.627Z,1003.72
2017-02-26T04:40:05.197Z,1003.66
2017-02-26T04:41:25.563Z,1003.74
2017-02-26T04:42:40.115Z,1003.61
2017-02-26T04:43:55.011Z,1003.6
2017-02-26T04:45:09.294Z,1003.67
2017-02-26T04:46:24.245Z,1003.75
2017-02-26T04:47:38.356Z,1003.79
2017-02-26T04:48:52.582Z,1003.77
2017-02-26T04:50:10.879Z,1003.82
2017-02-26T04:51:25.059Z,1003.79
2017-02-26T04:52:39.994Z,1003.81
2017-02-26T04:53:54.182Z,1003.91
2017-02-26T04:55:09.473Z,1003.9
2017-02-26T04:56:24.053Z,1003.84
2017-02-26T04:57:38.212Z,1003.91
2017-02-26T04:58:52.311Z,1003.92
2017-02-26T05:00:06.439Z,1003.95
2017-02-26T05:01:20.566Z,1004.03
2017-02-26T05:02:34.834Z,1004.07
2017-02-26T05:03:49.057Z,1004.14
2017-02-26T05:05:03.565Z,1004.11
2017-02-26T05:06:17.610Z,1004.12
2017-02-26T05:07:32.257Z,1004.11
2017-02-26T05:08:46.347Z,1004.1
2017-02-26T05:10:00.659Z,1004.06
2017-02-26T05:11:15.189Z,1004.01
2017-02-26T05:12:29.222Z,1003.97
2017-02-26T05:13:43.395Z,1004.01
2017-02-26T05:14:57.529Z,1004.08
2017-02-26T05:16:12.037Z,1004.11
2017-02-26T05:17:26.122Z,1004.05
2017-02-26T05:18:40.325Z,1004.07
2017-02-26T05:19:54.427Z,1004.06
2017-02-26T05:21:08.941Z,1004
2017-02-26T05:22:23.153Z,1003.97
2017-02-26T05:23:37.717Z,1003.96
2017-02-26T05:24:51.795Z,1003.96
2017-02-26T05:26:05.818Z,1003.94
2017-02-26T05:27:19.868Z,1003.83
2017-02-26T05:28:34.552Z,1003.84
2017-02-26T05:29:48.724Z,1003.8
2017-02-26T05:31:02.907Z,1003.76
2017-02-26T05:32:18.594Z,1003.73
2017-02-26T05:33:32.853Z,1003.72
2017-02-26T05:34:46.965Z,1003.64
2017-02-26T05:36:01.220Z,1003.67
2017-02-26T05:37:15.223Z,1003.82
2017-02-26T05:38:29.394Z,1003.94
2017-02-26T05:39:43.496Z,1003.8
2017-02-26T05:40:58.036Z,1003.93
2017-02-26T05:42:12.585Z,1003.84
2017-02-26T05:43:27.906Z,1003.83
2017-02-26T05:44:42.408Z,1003.81
2017-02-26T05:45:56.440Z,1003.71
2017-02-26T05:47:10.903Z,1003.7
2017-02-26T05:48:25.062Z,1003.69
2017-02-26T05:49:40.009Z,1003.67
2017-02-26T05:50:54.063Z,1003.73
2017-02-26T05:52:08.667Z,1003.78
2017-02-26T05:53:23.155Z,1003.8
2017-02-26T05:54:37.798Z,1003.85
2017-02-26T05:55:51.861Z,1003.87
2017-02-26T05:57:06.113Z,1003.91
2017-02-26T05:58:20.661Z,1003.97
2017-02-26T05:59:34.726Z,1003.97
2017-02-26T06:00:50.597Z,1003.99
2017-02-26T06:02:05.149Z,1004.05
2017-02-26T06:03:19.166Z,1004.08
2017-02-26T06:04:33.738Z,1004.14
2017-02-26T06:05:47.840Z,1004.01
2017-02-26T06:07:04.198Z,1003.97
2017-02-26T06:08:18.775Z,1003.95
2017-02-26T06:09:33.042Z,1003.93
2017-02-26T06:10:47.529Z,1003.84
2017-02-26T06:12:01.854Z,1003.74
2017-02-26T06:13:15.985Z,1003.75
2017-02-26T06:14:30.224Z,1003.78
2017-02-26T06:15:44.392Z,1003.74
2017-02-26T06:16:58.476Z,1003.8
2017-02-26T06:18:12.495Z,1003.87
2017-02-26T06:19:26.500Z,1003.95
2017-02-26T06:20:41.110Z,1003.81
2017-02-26T06:21:57.923Z,1003.81
2017-02-26T06:23:12.398Z,1003.77
2017-02-26T06:24:27.103Z,1003.83
2017-02-26T06:25:41.752Z,1003.86
2017-02-26T06:26:56.420Z,1003.86
2017-02-26T06:28:10.969Z,1003.92
2017-02-26T06:29:25.103Z,1003.93
2017-02-26T06:30:39.878Z,1003.9
2017-02-26T06:31:53.924Z,1003.9
2017-02-26T06:33:08.550Z,1003.96
2017-02-26T06:34:23.037Z,1003.97
2017-02-26T06:35:37.800Z,1004.03
2017-02-26T06:36:52.258Z,1004.09
2017-02-26T06:38:06.844Z,1004.12
2017-02-26T06:39:21.967Z,1004.14
2017-02-26T06:40:36.251Z,1004.15
2017-02-26T06:41:50.332Z,1004.15
2017-02-26T06:43:05.199Z,1004.15
2017-02-26T06:44:20.749Z,1004.2
2017-02-26T06:45:36.124Z,1004.19
2017-02-26T06:46:50.753Z,1004.24
2017-02-26T06:48:05.666Z,1004.19
2017-02-26T06:49:20.294Z,1004.13
2017-02-26T06:50:34.914Z,1004.16
2017-02-26T06:51:49.511Z,1004.14
2017-02-26T06:53:04.054Z,1004.16
2017-02-26T06:54:19.060Z,1004.14
2017-02-26T06:55:33.308Z,1004.15
2017-02-26T06:56:47.384Z,1004.11
2017-02-26T06:58:01.929Z,1004.08
2017-02-26T06:59:16.325Z,1004.07
2017-02-26T07:00:30.987Z,1004.01
2017-02-26T07:01:45.260Z,1003.93
2017-02-26T07:06:53.895Z,1003.84
2017-02-26T07:08:08.925Z,1003.83
2017-02-26T07:09:23.859Z,1003.88
2017-02-26T07:10:38.294Z,1003.78
2017-02-26T07:11:52.337Z,1003.82
2017-02-26T07:13:06.877Z,1003.7
2017-02-26T07:14:21.430Z,1003.68
2017-02-26T07:15:35.940Z,1003.72
2017-02-26T07:16:49.998Z,1003.77
2017-02-26T07:18:04.451Z,1003.88
2017-02-26T07:19:18.573Z,1003.9
2017-02-26T07:20:32.839Z,1003.89
2017-02-26T07:21:47.967Z,1003.91
2017-02-26T07:23:02.978Z,1003.83
2017-02-26T07:24:17.449Z,1003.86
2017-02-26T07:25:31.458Z,1003.85
2017-02-26T07:26:47.866Z,1003.9
2017-02-26T07:28:02.469Z,1003.89
2017-02-26T07:29:16.557Z,1003.97
2017-02-26T07:30:31.530Z,1003.95
2017-02-26T07:31:46.538Z,1003.94
2017-02-26T07:33:01.568Z,1003.85
2017-02-26T07:34:16.162Z,1003.77
2017-02-26T07:35:30.695Z,1003.85
2017-02-26T07:36:44.849Z,1003.77
2017-02-26T07:37:59.343Z,1003.85
2017-02-26T07:39:14.721Z,1003.9
2017-02-26T07:40:28.795Z,1003.95
2017-02-26T07:41:43.438Z,1003.93
2017-02-26T07:42:57.650Z,1003.85
2017-02-26T07:44:12.034Z,1003.69
2017-02-26T07:45:26.218Z,1003.55
2017-02-26T07:46:41.322Z,1003.48
2017-02-26T07:47:55.410Z,1003.51
2017-02-26T07:49:11.199Z,1003.58
2017-02-26T07:50:26.347Z,1003.66
2017-02-26T07:51:40.463Z,1003.68
2017-02-26T07:52:55.142Z,1003.61
2017-02-26T07:54:10.256Z,1003.6
2017-02-26T07:55:24.936Z,1003.46
2017-02-26T07:56:39.418Z,1003.49
2017-02-26T07:57:53.959Z,1003.47
2017-02-26T07:59:08.533Z,1003.49
2017-02-26T08:00:23.472Z,1003.39
2017-02-26T08:01:38.005Z,1003.58
2017-02-26T08:02:53.862Z,1003.66
2017-02-26T08:04:08.928Z,1003.66
2017-02-26T08:05:23.098Z,1003.7
2017-02-26T08:06:39.077Z,1003.8
2017-02-26T08:07:56.685Z,1003.76
2017-02-26T08:09:12.903Z,1003.82
2017-02-26T08:10:27.739Z,1003.82
2017-02-26T08:11:42.498Z,1003.87
2017-02-26T08:13:00.698Z,1003.85
2017-02-26T08:14:15.759Z,1003.88
2017-02-26T08:15:30.014Z,1003.87
2017-02-26T08:16:49.406Z,1003.86
2017-02-26T08:18:03.787Z,1003.87
2017-02-26T08:19:19.041Z,1003.86
2017-02-26T08:20:33.213Z,1003.95
2017-02-26T08:21:47.742Z,1003.93
2017-02-26T08:23:02.922Z,1003.83
2017-02-26T08:24:17.096Z,1003.86
2017-02-26T08:25:32.300Z,1003.84
2017-02-26T08:26:47.342Z,1003.84
2017-02-26T08:28:01.575Z,1003.87
2017-02-26T08:29:15.580Z,1003.93
2017-02-26T08:30:30.861Z,1003.91
2017-02-26T08:31:45.016Z,1003.94
2017-02-26T08:32:59.563Z,1003.92
2017-02-26T08:34:13.728Z,1003.96
2017-02-26T08:35:27.760Z,1003.91
2017-02-26T08:36:41.997Z,1003.92
2017-02-26T08:37:56.829Z,1003.96
2017-02-26T08:39:11.467Z,1003.94
2017-02-26T08:40:26.140Z,1003.98
2017-02-26T08:41:40.241Z,1003.92
2017-02-26T08:42:57.267Z,1003.88
2017-02-26T08:44:13.688Z,1003.84
2017-02-26T08:45:28.647Z,1003.72
2017-02-26T08:46:42.655Z,1003.83
2017-02-26T08:47:57.141Z,1003.81
2017-02-26T08:49:11.914Z,1003.85
2017-02-26T08:50:26.929Z,1003.82
2017-02-26T08:51:41.439Z,1003.87
2017-02-26T08:52:55.982Z,1003.85
2017-02-26T08:54:11.141Z,1003.78
2017-02-26T08:55:25.627Z,1003.88
2017-02-26T08:56:40.678Z,1003.88
2017-02-26T08:57:55.179Z,1003.9
2017-02-26T08:59:09.756Z,1003.71
2017-02-26T09:00:24.292Z,1003.76
2017-02-26T09:01:39.817Z,1003.78
2017-02-26T09:02:54.539Z,1003.66
2017-02-26T09:04:10.493Z,1003.59
2017-02-26T09:05:25.635Z,1003.53
2017-02-26T09:06:40.874Z,1003.74
2017-02-26T09:07:57.258Z,1003.82
2017-02-26T09:09:12.721Z,1003.8
2017-02-26T09:10:26.873Z,1003.76
2017-02-26T09:11:41.549Z,1003.66
2017-02-26T09:12:57.595Z,1003.7
2017-02-26T09:14:11.723Z,1003.78
2017-02-26T09:15:27.084Z,1003.84
2017-02-26T09:16:42.524Z,1003.86
2017-02-26T09:17:57.573Z,1003.88
2017-02-26T09:19:12.852Z,1003.87
2017-02-26T09:20:28.053Z,1003.88
2017-02-26T09:21:42.252Z,1003.83
2017-02-26T09:22:57.112Z,1003.75
2017-02-26T09:24:14.210Z,1003.8
2017-02-26T09:25:28.259Z,1003.77
2017-02-26T09:26:45.883Z,1003.76
2017-02-26T09:28:00.541Z,1003.85
2017-02-26T09:29:16.235Z,1003.91
2017-02-26T09:30:31.902Z,1003.85
2017-02-26T09:31:47.141Z,1003.86
2017-02-26T09:33:02.401Z,1003.94
2017-02-26T09:34:17.287Z,1003.97
2017-02-26T09:35:31.995Z,1004.12
2017-02-26T09:36:47.015Z,1004
2017-02-26T09:38:01.057Z,1004.04
2017-02-26T09:39:15.214Z,1004.07
2017-02-26T09:40:30.244Z,1004.06
2017-02-26T09:41:45.271Z,1004.1
2017-02-26T09:43:01.155Z,1004.2
2017-02-26T09:44:15.336Z,1004.21
2017-02-26T09:45:30.244Z,1004.21
2017-02-26T09:46:46.979Z,1004.28
2017-02-26T09:48:01.804Z,1004.26
2017-02-26T09:49:15.917Z,1004.27
2017-02-26T09:50:31.071Z,1004.23
2017-02-26T09:51:45.339Z,1004.17
2017-02-26T09:53:00.064Z,1004.13
2017-02-26T09:54:15.326Z,1004.12
2017-02-26T09:55:30.471Z,1004.21
2017-02-26T09:56:44.747Z,1004.09
2017-02-26T09:57:58.898Z,1004.18
2017-02-26T09:59:13.051Z,1004.19
2017-02-26T10:00:27.974Z,1004.13
2017-02-26T10:01:45.450Z,1004.19
2017-02-26T10:03:00.538Z,1004.11
2017-02-26T10:04:16.011Z,1004.13
2017-02-26T10:05:30.696Z,1004.12
2017-02-26T10:06:45.844Z,1004.15
2017-02-26T10:08:00.096Z,1004.12
2017-02-26T10:09:16.321Z,1004.07
2017-02-26T10:10:32.275Z,1004.02
2017-02-26T10:11:47.728Z,1003.96
2017-02-26T10:13:02.113Z,1003.99
2017-02-26T10:14:16.388Z,1003.99
2017-02-26T10:15:30.621Z,1004
2017-02-26T10:16:44.708Z,1003.98
2017-02-26T10:17:59.314Z,1003.96
2017-02-26T10:19:14.166Z,1003.98
2017-02-26T10:20:28.282Z,1003.96
2017-02-26T10:21:43.035Z,1003.96
2017-02-26T10:22:58.119Z,1003.93
2017-02-26T10:24:12.903Z,1003.98
2017-02-26T10:25:27.616Z,1004.04
2017-02-26T10:26:42.719Z,1004.06
2017-02-26T10:27:57.090Z,1004.03
2017-02-26T10:29:12.567Z,1004.03
2017-02-26T10:30:26.835Z,1004.12
2017-02-26T10:31:41.083Z,1004.11
2017-02-26T10:32:55.877Z,1004.03
2017-02-26T10:34:10.684Z,1004.16
2017-02-26T10:35:25.353Z,1004.12
2017-02-26T10:36:40.372Z,1004.16
2017-02-26T10:37:55.429Z,1004.19
2017-02-26T10:39:10.001Z,1004.11
2017-02-26T10:40:25.794Z,1004.16
2017-02-26T10:41:41.363Z,1004.03
2017-02-26T10:42:57.973Z,1003.97
2017-02-26T10:44:13.383Z,1003.94
2017-02-26T10:45:31.367Z,1003.85
2017-02-26T10:46:49.505Z,1003.72
2017-02-26T10:48:07.136Z,1003.63
2017-02-26T10:49:25.625Z,1003.68
2017-02-26T10:50:44.452Z,1003.67
2017-02-26T10:52:06.530Z,1003.63
2017-02-26T10:53:24.492Z,1003.67
2017-02-26T10:54:39.979Z,1003.5
2017-02-26T10:55:56.415Z,1003.66
2017-02-26T10:57:14.388Z,1003.6
2017-02-26T10:58:32.263Z,1003.6
2017-02-26T10:59:48.975Z,1003.59
2017-02-26T11:01:06.130Z,1003.59
2017-02-26T11:02:23.989Z,1003.67
2017-02-26T11:03:42.429Z,1003.54
2017-02-26T11:04:59.672Z,1003.47
2017-02-26T11:06:18.385Z,1003.51
2017-02-26T11:07:47.518Z,1003.45
2017-02-26T11:09:09.730Z,1003.56
2017-02-26T11:10:34.851Z,1003.58
2017-02-26T11:12:01.749Z,1003.49
2017-02-26T11:13:25.840Z,1003.52
2017-02-26T11:14:53.492Z,1003.52
2017-02-26T11:16:15.026Z,1003.35
2017-02-26T11:17:33.848Z,1003.37
2017-02-26T11:18:58.061Z,1003.36
2017-02-26T11:20:22.759Z,1003.31
2017-02-26T11:21:52.065Z,1003.28
2017-02-26T11:23:18.186Z,1003.3
2017-02-26T11:24:43.847Z,1003.29
2017-02-26T11:26:09.301Z,1003.28
2017-02-26T11:27:33.294Z,1003.3
2017-02-26T11:28:58.809Z,1003.14
2017-02-26T11:30:25.596Z,1003.14
2017-02-26T11:31:48.250Z,1003.21
2017-02-26T11:33:16.129Z,1003.14
2017-02-26T11:34:36.389Z,1003.25
2017-02-26T11:36:02.313Z,1003.28
2017-02-26T11:37:26.442Z,1003.27
2017-02-26T11:38:52.196Z,1003.25
2017-02-26T11:40:18.687Z,1003.24
2017-02-26T11:41:42.961Z,1003.2
2017-02-26T11:43:04.807Z,1003.08
2017-02-26T11:44:25.481Z,1003.07
2017-02-26T11:45:50.344Z,1003.03
2017-02-26T11:47:14.172Z,1003.01
2017-02-26T11:48:38.651Z,1002.99
2017-02-26T11:50:03.007Z,1003.03
2017-02-26T11:51:29.818Z,1003
2017-02-26T11:52:57.114Z,1002.94
2017-02-26T11:54:18.459Z,1002.87
2017-02-26T11:55:43.188Z,1002.95
2017-02-26T11:57:09.139Z,1002.88
2017-02-26T11:58:36.295Z,1002.85
2017-02-26T12:00:01.428Z,1002.87
2017-02-26T12:01:31.161Z,1002.82
2017-02-26T12:02:58.208Z,1002.74
2017-02-26T12:04:23.886Z,1002.67
2017-02-26T12:05:50.382Z,1002.69
2017-02-26T12:07:14.165Z,1002.71
2017-02-26T12:08:40.010Z,1002.52
2017-02-26T12:10:04.827Z,1002.53
2017-02-26T12:11:32.651Z,1002.5
2017-02-26T12:12:59.925Z,1002.42
2017-02-26T12:14:26.739Z,1002.39
2017-02-26T12:15:54.379Z,1002.3
2017-02-26T12:17:17.651Z,1002.23
2017-02-26T12:18:37.846Z,1002.28
2017-02-26T12:20:03.353Z,1002.3
2017-02-26T12:21:27.694Z,1002.21
2017-02-26T12:22:49.950Z,1002.29
2017-02-26T12:24:09.144Z,1002.26
2017-02-26T12:25:30.836Z,1002.25
2017-02-26T12:26:56.948Z,1002.24
2017-02-26T12:28:21.753Z,1002.19
2017-02-26T12:29:46.813Z,1002.27
2017-02-26T12:31:12.481Z,1002.14
2017-02-26T12:32:36.345Z,1002.17
2017-02-26T12:34:00.716Z,1002.23
2017-02-26T12:35:19.469Z,1002.22
2017-02-26T12:36:39.065Z,1002.21
2017-02-26T12:37:57.536Z,1002.17
2017-02-26T12:39:15.562Z,1002.19
2017-02-26T12:40:34.074Z,1002.13
2017-02-26T12:41:53.963Z,1002.17
2017-02-26T12:43:12.850Z,1002.27
2017-02-26T12:44:34.599Z,1002.27
2017-02-26T12:45:53.477Z,1002.22
2017-02-26T12:47:13.547Z,1002.24
2017-02-26T12:48:41.512Z,1002.23
2017-02-26T12:50:05.517Z,1002.24
2017-02-26T12:51:24.887Z,1002.13
2017-02-26T12:52:44.487Z,1002.17
2017-02-26T12:54:03.662Z,1002.23
2017-02-26T12:55:22.692Z,1002.19
2017-02-26T12:56:44.322Z,1002.15
2017-02-26T12:58:06.411Z,1002.16
2017-02-26T12:59:29.344Z,1002.17
2017-02-26T13:00:49.906Z,1002.07
2017-02-26T13:02:16.347Z,1002.09
2017-02-26T13:03:43.471Z,1002
2017-02-26T13:05:05.032Z,1001.87
2017-02-26T13:06:32.601Z,1001.89
2017-02-26T13:07:58.400Z,1001.87
2017-02-26T13:09:20.327Z,1001.91
2017-02-26T13:10:42.063Z,1001.88
2017-02-26T13:13:36.928Z,1001.97
2017-02-26T13:14:55.427Z,1001.86
2017-02-26T13:16:20.845Z,1001.86
2017-02-26T13:17:45.046Z,1001.83
2017-02-26T13:19:10.628Z,1001.81
2017-02-26T13:20:36.214Z,1001.81
2017-02-26T13:22:01.313Z,1001.87
2017-02-26T13:23:22.778Z,1001.78
2017-02-26T13:24:42.855Z,1001.66
2017-02-26T13:26:08.483Z,1001.72
2017-02-26T13:27:31.774Z,1001.78
2017-02-26T13:28:56.577Z,1001.73
2017-02-26T13:30:18.813Z,1001.69
2017-02-26T13:31:43.005Z,1001.64
2017-02-26T13:33:05.710Z,1001.59
2017-02-26T13:34:29.026Z,1001.62
2017-02-26T13:35:44.576Z,1001.6
2017-02-26T13:37:03.200Z,1001.64
2017-02-26T13:38:20.434Z,1001.6
2017-02-26T13:39:35.675Z,1001.55
2017-02-26T13:40:50.359Z,1001.55
2017-02-26T13:42:05.363Z,1001.46
2017-02-26T13:43:20.053Z,1001.49
2017-02-26T13:44:36.124Z,1001.47
2017-02-26T13:45:52.956Z,1001.47
2017-02-26T13:47:08.000Z,1001.45
2017-02-26T13:48:25.439Z,1001.47
2017-02-26T13:49:40.345Z,1001.44
2017-02-26T13:50:55.928Z,1001.41
2017-02-26T13:52:11.150Z,1001.35
2017-02-26T13:53:25.868Z,1001.37
2017-02-26T13:54:40.467Z,1001.37
2017-02-26T13:55:55.555Z,1001.37
2017-02-26T13:57:10.240Z,1001.42
2017-02-26T13:58:24.463Z,1001.43
2017-02-26T13:59:38.770Z,1001.29
2017-02-26T14:00:53.797Z,1001.36
2017-02-26T14:02:09.377Z,1001.36
2017-02-26T14:03:23.535Z,1001.29
2017-02-26T14:04:38.488Z,1001.32
2017-02-26T14:05:53.100Z,1001.23
2017-02-26T14:07:08.918Z,1001.21
2017-02-26T14:08:22.945Z,1001.23
2017-02-26T14:09:37.472Z,1001.2
2017-02-26T14:10:53.877Z,1001.19
2017-02-26T14:12:09.273Z,1001.3
2017-02-26T14:13:25.621Z,1001.31
2017-02-26T14:14:40.178Z,1001.31
2017-02-26T14:15:55.438Z,1001.22
2017-02-26T14:17:14.393Z,1001.21
2017-02-26T14:18:31.329Z,1001.22
2017-02-26T14:19:45.773Z,1001.17
2017-02-26T14:21:00.210Z,1001.22
2017-02-26T14:22:14.788Z,1001.21
2017-02-26T14:23:29.950Z,1001.11
2017-02-26T14:24:45.974Z,1001.15
2017-02-26T14:26:00.041Z,1001.22
2017-02-26T14:27:15.202Z,1001.18
2017-02-26T14:28:29.366Z,1001.14
2017-02-26T14:29:43.458Z,1001.14
2017-02-26T14:30:58.172Z,1001.08
2017-02-26T14:32:12.631Z,1001.1
2017-02-26T14:33:28.243Z,1000.94
2017-02-26T14:34:43.898Z,1001.06
2017-02-26T14:35:58.312Z,1001.15
2017-02-26T14:37:13.007Z,1000.97
2017-02-26T14:38:27.247Z,1001.14
2017-02-26T14:39:41.935Z,1001.09
2017-02-26T14:40:56.668Z,1001.17
2017-02-26T14:42:11.703Z,1001.07
2017-02-26T14:43:28.761Z,1001.13
2017-02-26T14:44:44.240Z,1001.15
2017-02-26T14:45:59.043Z,1001.18
2017-02-26T14:47:14.512Z,1001.16
2017-02-26T14:48:29.632Z,1001.15
2017-02-26T14:49:45.867Z,1001.11
2017-02-26T14:51:02.874Z,1001.14
2017-02-26T14:52:17.822Z,1001.14
2017-02-26T14:53:33.371Z,1001.14
2017-02-26T14:54:51.845Z,1001.11
2017-02-26T14:56:07.985Z,1001.15
2017-02-26T14:57:23.418Z,1001.17
2017-02-26T14:58:38.730Z,1001.04
2017-02-26T14:59:54.416Z,1001.07
2017-02-26T15:01:11.163Z,1001.13
2017-02-26T15:02:26.391Z,1001.09
2017-02-26T15:03:42.425Z,1001.09
2017-02-26T15:04:59.528Z,1001.12
2017-02-26T15:06:15.011Z,1001.16
2017-02-26T15:07:32.101Z,1001.11
2017-02-26T15:08:47.477Z,1001.03
2017-02-26T15:10:01.930Z,1001.04
2017-02-26T15:11:17.454Z,1001.02
2017-02-26T15:12:34.991Z,1001.03
2017-02-26T15:13:50.941Z,1001.11
2017-02-26T15:15:06.837Z,1001.04
2017-02-26T15:16:21.529Z,1001.05
2017-02-26T15:17:36.766Z,1001.06
2017-02-26T15:18:51.977Z,1001.04
2017-02-26T15:20:06.260Z,1001.03
2017-02-26T15:21:20.732Z,1000.96
2017-02-26T15:22:37.305Z,1000.97
2017-02-26T15:23:51.452Z,1001.01
2017-02-26T15:25:05.826Z,1000.94
2017-02-26T15:26:21.997Z,1001
2017-02-26T15:27:36.672Z,1001
2017-02-26T15:28:54.487Z,1000.96
2017-02-26T15:30:09.658Z,1000.93
2017-02-26T15:31:25.305Z,1000.95
2017-02-26T15:32:39.401Z,1000.95
2017-02-26T15:33:53.971Z,1001.02